sensor_id;sensor_type;location;lat;lon;timestamp;temperature;humidity
1155;DHT22;566;48.414;9.118;2022-10-16T00:01:58;15.20;98.00
1155;DHT22;566;48.414;9.118;2022-10-16T00:04:24;15.20;98.00
1155;DHT22;566;48.414;9.118;2022-10-16T00:06:49;15.20;98.00
1155;DHT22;566;48.414;9.118;2022-10-16T00:09:15;15.20;98.00
1155;DHT22;566;48.414;9.118;2022-10-16T00:11:41;15.20;98.00
1155;DHT22;566;48.414;9.118;2022-10-16T00:14:10;15.20;98.00
1155;DHT22;566;48.414;9.118;2022-10-16T00:16:36;15.10;98.00
1155;DHT22;566;48.414;9.118;2022-10-16T00:19:03;15.00;98.00
1155;DHT22;566;48.414;9.118;2022-10-16T00:21:29;15.00;98.00
1155;DHT22;566;48.414;9.118;2022-10-16T00:24:01;14.90;98.00
1155;DHT22;566;48.414;9.118;2022-10-16T00:26:29;14.90;98.00
1155;DHT22;566;48.414;9.118;2022-10-16T00:28:58;14.80;98.00
1155;DHT22;566;48.414;9.118;2022-10-16T00:31:24;14.80;98.00
1155;DHT22;566;48.414;9.118;2022-10-16T00:33:50;14.80;98.00
1155;DHT22;566;48.414;9.118;2022-10-16T00:36:18;14.80;98.00
1155;DHT22;566;48.414;9.118;2022-10-16T00:38:44;14.70;98.00
1155;DHT22;566;48.414;9.118;2022-10-16T00:41:16;14.70;98.00
1155;DHT22;566;48.414;9.118;2022-10-16T00:43:49;14.80;98.00
1155;DHT22;566;48.414;9.118;2022-10-16T00:46:28;14.80;98.00
1155;DHT22;566;48.414;9.118;2022-10-16T00:51:42;14.80;98.00
1155;DHT22;566;48.414;9.118;2022-10-16T00:54:12;14.90;98.00
1155;DHT22;566;48.414;9.118;2022-10-16T00:56:39;15.00;98.00
1155;DHT22;566;48.414;9.118;2022-10-16T00:59:07;15.00;98.00
1155;DHT22;566;48.414;9.118;2022-10-16T01:01:36;15.20;98.00
1155;DHT22;566;48.414;9.118;2022-10-16T01:04:02;15.20;98.00
1155;DHT22;566;48.414;9.118;2022-10-16T01:09:34;15.30;98.00
1155;DHT22;566;48.414;9.118;2022-10-16T01:12:28;15.30;98.00
1155;DHT22;566;48.414;9.118;2022-10-16T01:15:18;15.30;98.00
1155;DHT22;566;48.414;9.118;2022-10-16T01:20:35;15.30;98.00
1155;DHT22;566;48.414;9.118;2022-10-16T01:29:12;15.40;98.00
1155;DHT22;566;48.414;9.118;2022-10-16T01:31:42;15.50;98.00
1155;DHT22;566;48.414;9.118;2022-10-16T01:34:16;15.50;98.00
1155;DHT22;566;48.414;9.118;2022-10-16T01:36:51;15.50;98.00
1155;DHT22;566;48.414;9.118;2022-10-16T01:39:19;15.60;98.00
1155;DHT22;566;48.414;9.118;2022-10-16T01:41:50;15.70;98.00
1155;DHT22;566;48.414;9.118;2022-10-16T01:44:24;15.60;98.00
1155;DHT22;566;48.414;9.118;2022-10-16T01:46:51;15.60;98.00
1155;DHT22;566;48.414;9.118;2022-10-16T01:49:18;15.60;98.00
1155;DHT22;566;48.414;9.118;2022-10-16T01:51:47;15.70;98.00
1155;DHT22;566;48.414;9.118;2022-10-16T01:54:14;15.70;98.00
1155;DHT22;566;48.414;9.118;2022-10-16T01:56:42;15.80;98.00
1155;DHT22;566;48.414;9.118;2022-10-16T01:59:17;15.80;98.00
1155;DHT22;566;48.414;9.118;2022-10-16T02:01:48;15.80;98.00
1155;DHT22;566;48.414;9.118;2022-10-16T02:04:20;15.80;98.00
1155;DHT22;566;48.414;9.118;2022-10-16T02:06:47;15.90;98.00
1155;DHT22;566;48.414;9.118;2022-10-16T02:09:13;15.90;98.00
1155;DHT22;566;48.414;9.118;2022-10-16T02:11:41;15.90;98.00
1155;DHT22;566;48.414;9.118;2022-10-16T02:14:07;15.90;98.00
1155;DHT22;566;48.414;9.118;2022-10-16T02:16:35;15.90;98.00
1155;DHT22;566;48.414;9.118;2022-10-16T02:19:01;15.90;98.00
1155;DHT22;566;48.414;9.118;2022-10-16T02:21:32;15.90;98.00
1155;DHT22;566;48.414;9.118;2022-10-16T02:24:17;15.90;98.00
1155;DHT22;566;48.414;9.118;2022-10-16T02:26:57;15.90;98.00
1155;DHT22;566;48.414;9.118;2022-10-16T02:29:25;15.90;98.00
1155;DHT22;566;48.414;9.118;2022-10-16T02:31:56;15.90;98.00
1155;DHT22;566;48.414;9.118;2022-10-16T02:34:25;15.90;98.00
1155;DHT22;566;48.414;9.118;2022-10-16T02:36:53;15.90;98.00
1155;DHT22;566;48.414;9.118;2022-10-16T02:39:20;16.00;98.00
1155;DHT22;566;48.414;9.118;2022-10-16T02:41:45;16.10;98.00
1155;DHT22;566;48.414;9.118;2022-10-16T02:44:11;16.10;98.00
1155;DHT22;566;48.414;9.118;2022-10-16T02:46:37;16.10;98.00
1155;DHT22;566;48.414;9.118;2022-10-16T02:49:02;16.10;98.00
1155;DHT22;566;48.414;9.118;2022-10-16T02:51:28;16.00;98.00
1155;DHT22;566;48.414;9.118;2022-10-16T02:53:54;15.90;98.00
1155;DHT22;566;48.414;9.118;2022-10-16T02:56:20;15.90;98.00
1155;DHT22;566;48.414;9.118;2022-10-16T02:58:45;15.90;98.00
1155;DHT22;566;48.414;9.118;2022-10-16T03:01:11;16.00;98.00
1155;DHT22;566;48.414;9.118;2022-10-16T03:03:38;16.00;98.00
1155;DHT22;566;48.414;9.118;2022-10-16T03:06:04;16.00;98.00
1155;DHT22;566;48.414;9.118;2022-10-16T03:08:29;16.00;98.00
1155;DHT22;566;48.414;9.118;2022-10-16T03:10:55;16.10;97.90
1155;DHT22;566;48.414;9.118;2022-10-16T03:13:21;16.10;97.70
1155;DHT22;566;48.414;9.118;2022-10-16T03:15:47;16.20;97.90
1155;DHT22;566;48.414;9.118;2022-10-16T03:18:13;16.10;98.00
1155;DHT22;566;48.414;9.118;2022-10-16T03:20:38;16.20;97.50
1155;DHT22;566;48.414;9.118;2022-10-16T03:23:04;16.20;97.50
1155;DHT22;566;48.414;9.118;2022-10-16T03:25:30;16.20;97.40
1155;DHT22;566;48.414;9.118;2022-10-16T03:27:55;16.30;97.40
1155;DHT22;566;48.414;9.118;2022-10-16T03:30:21;16.20;97.50
1155;DHT22;566;48.414;9.118;2022-10-16T03:32:47;16.20;97.60
1155;DHT22;566;48.414;9.118;2022-10-16T03:35:12;16.10;97.70
1155;DHT22;566;48.414;9.118;2022-10-16T03:37:38;16.10;97.70
1155;DHT22;566;48.414;9.118;2022-10-16T03:40:13;16.10;97.80
1155;DHT22;566;48.414;9.118;2022-10-16T03:42:39;16.10;97.90
1155;DHT22;566;48.414;9.118;2022-10-16T03:45:05;16.00;98.00
1155;DHT22;566;48.414;9.118;2022-10-16T03:47:31;16.00;98.00
1155;DHT22;566;48.414;9.118;2022-10-16T03:49:59;15.90;98.00
1155;DHT22;566;48.414;9.118;2022-10-16T03:52:24;16.00;98.00
1155;DHT22;566;48.414;9.118;2022-10-16T03:54:50;16.00;98.00
1155;DHT22;566;48.414;9.118;2022-10-16T03:57:16;15.90;98.00
1155;DHT22;566;48.414;9.118;2022-10-16T03:59:41;15.90;98.00
1155;DHT22;566;48.414;9.118;2022-10-16T04:02:07;15.90;98.00
1155;DHT22;566;48.414;9.118;2022-10-16T04:04:33;15.90;98.00
1155;DHT22;566;48.414;9.118;2022-10-16T04:06:58;15.90;98.00
1155;DHT22;566;48.414;9.118;2022-10-16T04:09:24;15.90;98.00
1155;DHT22;566;48.414;9.118;2022-10-16T04:11:49;16.00;98.00
1155;DHT22;566;48.414;9.118;2022-10-16T04:14:16;16.00;97.80
1155;DHT22;566;48.414;9.118;2022-10-16T04:16:41;16.00;97.80
1155;DHT22;566;48.414;9.118;2022-10-16T04:19:07;16.20;97.20
1155;DHT22;566;48.414;9.118;2022-10-16T04:21:33;16.40;96.70
1155;DHT22;566;48.414;9.118;2022-10-16T04:23:58;16.40;97.10
1155;DHT22;566;48.414;9.118;2022-10-16T04:26:24;16.30;97.00
1155;DHT22;566;48.414;9.118;2022-10-16T04:28:49;16.30;97.10
1155;DHT22;566;48.414;9.118;2022-10-16T04:31:15;16.30;97.10
1155;DHT22;566;48.414;9.118;2022-10-16T04:33:42;16.30;97.10
1155;DHT22;566;48.414;9.118;2022-10-16T04:36:08;16.30;96.90
1155;DHT22;566;48.414;9.118;2022-10-16T04:38:34;16.30;96.90
1155;DHT22;566;48.414;9.118;2022-10-16T04:41:00;16.30;96.70
1155;DHT22;566;48.414;9.118;2022-10-16T04:43:29;16.30;96.70
1155;DHT22;566;48.414;9.118;2022-10-16T04:45:55;16.30;96.30
1155;DHT22;566;48.414;9.118;2022-10-16T04:48:22;16.30;96.40
1155;DHT22;566;48.414;9.118;2022-10-16T04:50:47;16.50;95.70
1155;DHT22;566;48.414;9.118;2022-10-16T04:53:13;16.60;94.90
1155;DHT22;566;48.414;9.118;2022-10-16T04:55:40;16.80;94.40
1155;DHT22;566;48.414;9.118;2022-10-16T04:58:06;16.90;94.10
1155;DHT22;566;48.414;9.118;2022-10-16T05:00:32;16.90;94.10
1155;DHT22;566;48.414;9.118;2022-10-16T05:02:58;16.80;94.00
1155;DHT22;566;48.414;9.118;2022-10-16T05:05:27;16.80;94.10
1155;DHT22;566;48.414;9.118;2022-10-16T05:07:53;16.90;94.00
1155;DHT22;566;48.414;9.118;2022-10-16T05:10:19;16.80;94.80
1155;DHT22;566;48.414;9.118;2022-10-16T05:12:45;16.60;95.20
1155;DHT22;566;48.414;9.118;2022-10-16T05:15:14;16.40;95.60
1155;DHT22;566;48.414;9.118;2022-10-16T05:17:40;16.40;95.20
1155;DHT22;566;48.414;9.118;2022-10-16T05:20:07;16.40;95.60
1155;DHT22;566;48.414;9.118;2022-10-16T05:22:32;16.40;95.60
1155;DHT22;566;48.414;9.118;2022-10-16T05:24:58;16.30;96.10
1155;DHT22;566;48.414;9.118;2022-10-16T05:27:24;16.10;96.50
1155;DHT22;566;48.414;9.118;2022-10-16T05:29:52;16.00;96.70
1155;DHT22;566;48.414;9.118;2022-10-16T05:32:18;15.90;96.90
1155;DHT22;566;48.414;9.118;2022-10-16T05:34:45;15.90;97.00
1155;DHT22;566;48.414;9.118;2022-10-16T05:37:11;15.80;97.40
1155;DHT22;566;48.414;9.118;2022-10-16T05:39:38;15.80;97.50
1155;DHT22;566;48.414;9.118;2022-10-16T05:42:04;15.80;97.70
1155;DHT22;566;48.414;9.118;2022-10-16T05:44:30;15.80;97.50
1155;DHT22;566;48.414;9.118;2022-10-16T05:46:56;15.80;97.50
1155;DHT22;566;48.414;9.118;2022-10-16T05:49:22;15.80;97.60
1155;DHT22;566;48.414;9.118;2022-10-16T05:51:48;15.80;97.50
1155;DHT22;566;48.414;9.118;2022-10-16T05:54:13;15.90;97.40
1155;DHT22;566;48.414;9.118;2022-10-16T05:56:39;15.90;97.40
1155;DHT22;566;48.414;9.118;2022-10-16T05:59:05;15.90;97.50
1155;DHT22;566;48.414;9.118;2022-10-16T06:01:30;15.90;97.20
1155;DHT22;566;48.414;9.118;2022-10-16T06:03:56;16.00;96.90
1155;DHT22;566;48.414;9.118;2022-10-16T06:06:24;16.10;96.20
1155;DHT22;566;48.414;9.118;2022-10-16T06:08:52;16.20;96.20
1155;DHT22;566;48.414;9.118;2022-10-16T06:11:24;16.30;95.80
1155;DHT22;566;48.414;9.118;2022-10-16T06:13:51;16.30;95.90
1155;DHT22;566;48.414;9.118;2022-10-16T06:16:17;16.40;95.40
1155;DHT22;566;48.414;9.118;2022-10-16T06:18:42;16.40;95.70
1155;DHT22;566;48.414;9.118;2022-10-16T06:21:20;16.40;95.70
1155;DHT22;566;48.414;9.118;2022-10-16T06:23:46;16.40;95.80
1155;DHT22;566;48.414;9.118;2022-10-16T06:26:15;16.30;95.70
1155;DHT22;566;48.414;9.118;2022-10-16T06:28:45;16.30;95.90
1155;DHT22;566;48.414;9.118;2022-10-16T06:31:12;16.40;95.20
1155;DHT22;566;48.414;9.118;2022-10-16T06:33:38;16.40;95.40
1155;DHT22;566;48.414;9.118;2022-10-16T06:36:10;16.50;95.60
1155;DHT22;566;48.414;9.118;2022-10-16T06:38:36;16.60;95.20
1155;DHT22;566;48.414;9.118;2022-10-16T06:41:03;16.70;95.10
1155;DHT22;566;48.414;9.118;2022-10-16T06:43:30;16.80;94.10
1155;DHT22;566;48.414;9.118;2022-10-16T06:46:00;17.00;94.10
1155;DHT22;566;48.414;9.118;2022-10-16T06:48:27;17.10;93.20
1155;DHT22;566;48.414;9.118;2022-10-16T06:51:01;17.30;92.40
1155;DHT22;566;48.414;9.118;2022-10-16T06:53:29;17.40;91.70
1155;DHT22;566;48.414;9.118;2022-10-16T06:55:55;17.60;91.50
1155;DHT22;566;48.414;9.118;2022-10-16T06:58:21;17.70;90.90
1155;DHT22;566;48.414;9.118;2022-10-16T07:00:48;17.80;90.60
1155;DHT22;566;48.414;9.118;2022-10-16T07:03:14;17.80;91.60
1155;DHT22;566;48.414;9.118;2022-10-16T07:05:41;17.80;92.30
1155;DHT22;566;48.414;9.118;2022-10-16T07:08:07;17.70;93.00
1155;DHT22;566;48.414;9.118;2022-10-16T07:10:33;17.70;90.90
1155;DHT22;566;48.414;9.118;2022-10-16T07:12:59;17.70;91.30
1155;DHT22;566;48.414;9.118;2022-10-16T07:15:25;17.80;91.50
1155;DHT22;566;48.414;9.118;2022-10-16T07:17:51;17.80;92.10
1155;DHT22;566;48.414;9.118;2022-10-16T07:20:19;17.90;90.40
1155;DHT22;566;48.414;9.118;2022-10-16T07:22:45;18.00;91.10
1155;DHT22;566;48.414;9.118;2022-10-16T07:25:13;18.20;90.60
1155;DHT22;566;48.414;9.118;2022-10-16T07:27:38;18.30;88.90
1155;DHT22;566;48.414;9.118;2022-10-16T07:30:05;18.40;89.70
1155;DHT22;566;48.414;9.118;2022-10-16T07:32:33;18.50;89.80
1155;DHT22;566;48.414;9.118;2022-10-16T07:34:59;18.50;89.60
1155;DHT22;566;48.414;9.118;2022-10-16T07:37:25;18.40;90.10
1155;DHT22;566;48.414;9.118;2022-10-16T07:39:50;18.30;89.00
1155;DHT22;566;48.414;9.118;2022-10-16T07:42:17;18.30;88.80
1155;DHT22;566;48.414;9.118;2022-10-16T07:44:42;18.30;88.40
1155;DHT22;566;48.414;9.118;2022-10-16T07:47:11;18.50;86.90
1155;DHT22;566;48.414;9.118;2022-10-16T07:49:36;18.70;87.20
1155;DHT22;566;48.414;9.118;2022-10-16T07:52:02;18.90;87.40
1155;DHT22;566;48.414;9.118;2022-10-16T07:54:28;19.20;86.10
1155;DHT22;566;48.414;9.118;2022-10-16T07:56:53;19.40;84.50
1155;DHT22;566;48.414;9.118;2022-10-16T07:59:19;19.40;84.80
1155;DHT22;566;48.414;9.118;2022-10-16T08:01:45;19.50;84.20
1155;DHT22;566;48.414;9.118;2022-10-16T08:04:11;19.60;84.20
1155;DHT22;566;48.414;9.118;2022-10-16T08:06:38;20.00;84.20
1155;DHT22;566;48.414;9.118;2022-10-16T08:09:04;20.30;81.70
1155;DHT22;566;48.414;9.118;2022-10-16T08:11:31;20.60;82.20
1155;DHT22;566;48.414;9.118;2022-10-16T08:13:56;20.80;79.90
1155;DHT22;566;48.414;9.118;2022-10-16T08:16:22;20.50;81.00
1155;DHT22;566;48.414;9.118;2022-10-16T08:18:48;20.30;80.40
1155;DHT22;566;48.414;9.118;2022-10-16T08:21:16;20.40;81.90
1155;DHT22;566;48.414;9.118;2022-10-16T08:23:42;20.30;81.40
1155;DHT22;566;48.414;9.118;2022-10-16T08:26:12;20.40;83.80
1155;DHT22;566;48.414;9.118;2022-10-16T08:28:38;20.50;81.00
1155;DHT22;566;48.414;9.118;2022-10-16T08:33:34;20.70;80.10
1155;DHT22;566;48.414;9.118;2022-10-16T08:36:01;20.80;79.70
1155;DHT22;566;48.414;9.118;2022-10-16T08:38:26;20.90;80.00
1155;DHT22;566;48.414;9.118;2022-10-16T08:43:43;20.80;78.90
1155;DHT22;566;48.414;9.118;2022-10-16T08:46:21;20.70;78.80
1155;DHT22;566;48.414;9.118;2022-10-16T08:48:59;20.70;78.90
1155;DHT22;566;48.414;9.118;2022-10-16T08:51:28;20.70;79.20
1155;DHT22;566;48.414;9.118;2022-10-16T08:53:58;20.80;79.20
1155;DHT22;566;48.414;9.118;2022-10-16T08:56:25;20.90;78.80
1155;DHT22;566;48.414;9.118;2022-10-16T08:58:52;21.10;78.40
1155;DHT22;566;48.414;9.118;2022-10-16T09:01:20;21.10;78.70
1155;DHT22;566;48.414;9.118;2022-10-16T09:06:47;21.60;77.30
1155;DHT22;566;48.414;9.118;2022-10-16T09:09:44;21.60;76.90
1155;DHT22;566;48.414;9.118;2022-10-16T09:12:40;21.70;76.20
1155;DHT22;566;48.414;9.118;2022-10-16T09:15:39;21.80;76.70
1155;DHT22;566;48.414;9.118;2022-10-16T09:21:28;22.30;75.10
1155;DHT22;566;48.414;9.118;2022-10-16T09:23:59;22.10;75.30
1155;DHT22;566;48.414;9.118;2022-10-16T09:26:25;21.90;76.10
1155;DHT22;566;48.414;9.118;2022-10-16T09:28:52;21.80;76.60
1155;DHT22;566;48.414;9.118;2022-10-16T09:31:22;21.80;76.60
1155;DHT22;566;48.414;9.118;2022-10-16T09:33:52;21.70;76.40
1155;DHT22;566;48.414;9.118;2022-10-16T09:36:20;21.90;76.60
1155;DHT22;566;48.414;9.118;2022-10-16T09:38:45;21.70;76.20
1155;DHT22;566;48.414;9.118;2022-10-16T09:41:20;21.60;75.60
1155;DHT22;566;48.414;9.118;2022-10-16T09:43:49;21.60;76.00
1155;DHT22;566;48.414;9.118;2022-10-16T09:48:51;21.60;76.00
1155;DHT22;566;48.414;9.118;2022-10-16T09:53:59;21.40;76.00
1155;DHT22;566;48.414;9.118;2022-10-16T09:56:34;21.20;77.60
1155;DHT22;566;48.414;9.118;2022-10-16T09:59:19;21.10;77.00
1155;DHT22;566;48.414;9.118;2022-10-16T10:01:50;21.10;77.30
1155;DHT22;566;48.414;9.118;2022-10-16T10:04:21;21.00;77.10
1155;DHT22;566;48.414;9.118;2022-10-16T10:06:55;21.10;78.00
1155;DHT22;566;48.414;9.118;2022-10-16T10:09:46;21.10;77.50
1155;DHT22;566;48.414;9.118;2022-10-16T10:12:25;21.00;77.10
1155;DHT22;566;48.414;9.118;2022-10-16T10:14:54;21.10;76.30
1155;DHT22;566;48.414;9.118;2022-10-16T10:17:24;21.10;76.60
1155;DHT22;566;48.414;9.118;2022-10-16T10:30:29;21.10;77.20
1155;DHT22;566;48.414;9.118;2022-10-16T10:33:19;21.40;75.20
1155;DHT22;566;48.414;9.118;2022-10-16T10:41:25;23.30;71.10
1155;DHT22;566;48.414;9.118;2022-10-16T10:44:11;24.10;70.20
1155;DHT22;566;48.414;9.118;2022-10-16T10:55:14;26.00;64.50
1155;DHT22;566;48.414;9.118;2022-10-16T11:00:19;25.60;66.50
1155;DHT22;566;48.414;9.118;2022-10-16T11:05:41;25.50;64.70
1155;DHT22;566;48.414;9.118;2022-10-16T11:08:23;25.60;65.90
1155;DHT22;566;48.414;9.118;2022-10-16T11:10:56;25.70;64.70
1155;DHT22;566;48.414;9.118;2022-10-16T11:16:21;26.20;64.10
1155;DHT22;566;48.414;9.118;2022-10-16T11:18:52;26.20;63.60
1155;DHT22;566;48.414;9.118;2022-10-16T11:21:22;25.80;64.60
1155;DHT22;566;48.414;9.118;2022-10-16T11:24:15;25.60;65.20
1155;DHT22;566;48.414;9.118;2022-10-16T11:26:44;25.40;65.80
1155;DHT22;566;48.414;9.118;2022-10-16T11:29:32;25.20;65.90
1155;DHT22;566;48.414;9.118;2022-10-16T11:32:01;25.00;67.20
1155;DHT22;566;48.414;9.118;2022-10-16T11:34:53;25.30;66.80
1155;DHT22;566;48.414;9.118;2022-10-16T11:37:25;25.20;66.30
1155;DHT22;566;48.414;9.118;2022-10-16T11:39:54;25.00;66.50
1155;DHT22;566;48.414;9.118;2022-10-16T11:42:32;24.70;67.40
1155;DHT22;566;48.414;9.118;2022-10-16T11:51:02;25.60;67.60
1155;DHT22;566;48.414;9.118;2022-10-16T11:56:54;25.80;67.60
1155;DHT22;566;48.414;9.118;2022-10-16T11:59:28;25.40;67.40
1155;DHT22;566;48.414;9.118;2022-10-16T12:04:45;25.30;67.40
1155;DHT22;566;48.414;9.118;2022-10-16T12:07:19;24.90;69.00
1155;DHT22;566;48.414;9.118;2022-10-16T12:09:46;24.80;66.90
1155;DHT22;566;48.414;9.118;2022-10-16T12:12:49;24.80;67.70
1155;DHT22;566;48.414;9.118;2022-10-16T12:15:21;24.70;68.00
1155;DHT22;566;48.414;9.118;2022-10-16T12:17:48;24.50;68.50
1155;DHT22;566;48.414;9.118;2022-10-16T12:23:16;24.50;70.00
1155;DHT22;566;48.414;9.118;2022-10-16T12:25:55;24.60;67.70
1155;DHT22;566;48.414;9.118;2022-10-16T12:28:31;24.50;68.30
1155;DHT22;566;48.414;9.118;2022-10-16T12:31:03;24.80;68.30
1155;DHT22;566;48.414;9.118;2022-10-16T12:33:36;24.80;68.30
1155;DHT22;566;48.414;9.118;2022-10-16T12:36:15;24.70;69.40
1155;DHT22;566;48.414;9.118;2022-10-16T12:38:52;24.50;68.70
1155;DHT22;566;48.414;9.118;2022-10-16T12:41:31;24.60;69.70
1155;DHT22;566;48.414;9.118;2022-10-16T12:43:58;24.80;68.70
1155;DHT22;566;48.414;9.118;2022-10-16T12:49:48;25.10;68.30
1155;DHT22;566;48.414;9.118;2022-10-16T12:52:39;25.20;68.00
1155;DHT22;566;48.414;9.118;2022-10-16T12:55:19;25.10;68.30
1155;DHT22;566;48.414;9.118;2022-10-16T13:00:26;25.40;68.20
1155;DHT22;566;48.414;9.118;2022-10-16T13:03:24;25.50;67.50
1155;DHT22;566;48.414;9.118;2022-10-16T13:11:32;25.50;67.80
1155;DHT22;566;48.414;9.118;2022-10-16T13:28:21;23.90;71.70
1155;DHT22;566;48.414;9.118;2022-10-16T13:30:53;23.80;72.40
1155;DHT22;566;48.414;9.118;2022-10-16T13:33:37;23.90;71.40
1155;DHT22;566;48.414;9.118;2022-10-16T13:36:04;24.10;74.20
1155;DHT22;566;48.414;9.118;2022-10-16T13:38:33;24.60;71.40
1155;DHT22;566;48.414;9.118;2022-10-16T13:41:05;25.10;70.20
1155;DHT22;566;48.414;9.118;2022-10-16T13:43:37;24.90;70.30
1155;DHT22;566;48.414;9.118;2022-10-16T13:48:38;24.20;71.70
1155;DHT22;566;48.414;9.118;2022-10-16T13:53:40;24.30;73.90
1155;DHT22;566;48.414;9.118;2022-10-16T13:56:14;24.50;71.80
1155;DHT22;566;48.414;9.118;2022-10-16T13:58:44;24.50;71.50
1155;DHT22;566;48.414;9.118;2022-10-16T14:01:39;24.70;70.70
1155;DHT22;566;48.414;9.118;2022-10-16T14:04:09;24.90;72.30
1155;DHT22;566;48.414;9.118;2022-10-16T14:06:36;25.30;75.40
1155;DHT22;566;48.414;9.118;2022-10-16T14:09:27;25.40;75.90
1155;DHT22;566;48.414;9.118;2022-10-16T14:11:57;25.40;76.40
1155;DHT22;566;48.414;9.118;2022-10-16T14:14:24;25.20;75.40
1155;DHT22;566;48.414;9.118;2022-10-16T14:16:52;24.70;76.70
1155;DHT22;566;48.414;9.118;2022-10-16T14:19:26;24.30;78.50
1155;DHT22;566;48.414;9.118;2022-10-16T14:21:53;24.10;78.70
1155;DHT22;566;48.414;9.118;2022-10-16T14:24:31;23.80;79.60
1155;DHT22;566;48.414;9.118;2022-10-16T14:26:59;23.70;82.00
1155;DHT22;566;48.414;9.118;2022-10-16T14:29:27;23.60;81.20
1155;DHT22;566;48.414;9.118;2022-10-16T14:31:59;23.60;82.40
1155;DHT22;566;48.414;9.118;2022-10-16T14:34:35;23.50;82.30
1155;DHT22;566;48.414;9.118;2022-10-16T14:37:24;23.60;83.10
1155;DHT22;566;48.414;9.118;2022-10-16T14:39:51;23.60;82.70
1155;DHT22;566;48.414;9.118;2022-10-16T14:42:21;23.50;82.50
1155;DHT22;566;48.414;9.118;2022-10-16T14:44:50;23.40;82.90
1155;DHT22;566;48.414;9.118;2022-10-16T14:47:20;23.60;83.90
1155;DHT22;566;48.414;9.118;2022-10-16T14:49:53;24.60;81.80
1155;DHT22;566;48.414;9.118;2022-10-16T14:52:25;25.40;79.50
1155;DHT22;566;48.414;9.118;2022-10-16T14:54:51;25.50;78.50
1155;DHT22;566;48.414;9.118;2022-10-16T14:57:24;25.30;77.90
1155;DHT22;566;48.414;9.118;2022-10-16T14:59:54;25.00;79.10
1155;DHT22;566;48.414;9.118;2022-10-16T15:02:39;24.70;79.10
1155;DHT22;566;48.414;9.118;2022-10-16T15:05:22;24.50;80.40
1155;DHT22;566;48.414;9.118;2022-10-16T15:07:54;24.10;81.20
1155;DHT22;566;48.414;9.118;2022-10-16T15:10:27;23.50;82.90
1155;DHT22;566;48.414;9.118;2022-10-16T15:12:53;23.00;84.90
1155;DHT22;566;48.414;9.118;2022-10-16T15:15:34;22.80;84.90
1155;DHT22;566;48.414;9.118;2022-10-16T15:18:00;22.50;85.90
1155;DHT22;566;48.414;9.118;2022-10-16T15:20:28;22.30;87.00
1155;DHT22;566;48.414;9.118;2022-10-16T15:22:56;22.70;86.30
1155;DHT22;566;48.414;9.118;2022-10-16T15:28:07;22.90;85.00
1155;DHT22;566;48.414;9.118;2022-10-16T15:30:34;22.70;86.10
1155;DHT22;566;48.414;9.118;2022-10-16T15:33:02;22.40;87.40
1155;DHT22;566;48.414;9.118;2022-10-16T15:35:27;22.40;88.50
1155;DHT22;566;48.414;9.118;2022-10-16T15:37:53;22.60;87.30
1155;DHT22;566;48.414;9.118;2022-10-16T15:40:20;22.90;87.10
1155;DHT22;566;48.414;9.118;2022-10-16T15:42:46;23.40;85.50
1155;DHT22;566;48.414;9.118;2022-10-16T15:45:12;23.80;84.00
1155;DHT22;566;48.414;9.118;2022-10-16T15:47:47;23.90;82.90
1155;DHT22;566;48.414;9.118;2022-10-16T15:50:23;23.60;82.60
1155;DHT22;566;48.414;9.118;2022-10-16T15:52:50;22.90;84.80
1155;DHT22;566;48.414;9.118;2022-10-16T15:55:16;22.30;86.90
1155;DHT22;566;48.414;9.118;2022-10-16T15:57:44;21.50;88.40
1155;DHT22;566;48.414;9.118;2022-10-16T16:00:16;21.10;90.20
1155;DHT22;566;48.414;9.118;2022-10-16T16:02:52;20.70;91.50
1155;DHT22;566;48.414;9.118;2022-10-16T16:05:19;20.30;92.10
1155;DHT22;566;48.414;9.118;2022-10-16T16:07:45;20.00;92.90
1155;DHT22;566;48.414;9.118;2022-10-16T16:10:12;19.80;92.80
1155;DHT22;566;48.414;9.118;2022-10-16T16:12:38;19.60;93.70
1155;DHT22;566;48.414;9.118;2022-10-16T16:15:08;19.40;94.60
1155;DHT22;566;48.414;9.118;2022-10-16T16:17:35;19.10;94.90
1155;DHT22;566;48.414;9.118;2022-10-16T16:20:01;18.90;95.40
1155;DHT22;566;48.414;9.118;2022-10-16T16:22:27;18.70;95.80
1155;DHT22;566;48.414;9.118;2022-10-16T16:24:52;18.60;96.00
1155;DHT22;566;48.414;9.118;2022-10-16T16:27:18;18.40;96.40
1155;DHT22;566;48.414;9.118;2022-10-16T16:29:48;18.20;96.90
1155;DHT22;566;48.414;9.118;2022-10-16T16:32:13;18.00;97.10
1155;DHT22;566;48.414;9.118;2022-10-16T16:34:39;17.90;97.60
1155;DHT22;566;48.414;9.118;2022-10-16T16:37:05;17.70;97.70
1155;DHT22;566;48.414;9.118;2022-10-16T16:39:30;17.60;97.90
1155;DHT22;566;48.414;9.118;2022-10-16T16:41:57;17.50;97.70
1155;DHT22;566;48.414;9.118;2022-10-16T16:44:28;17.40;97.50
1155;DHT22;566;48.414;9.118;2022-10-16T16:46:53;17.40;97.70
1155;DHT22;566;48.414;9.118;2022-10-16T16:49:20;17.40;97.40
1155;DHT22;566;48.414;9.118;2022-10-16T16:51:45;17.40;97.10
1155;DHT22;566;48.414;9.118;2022-10-16T16:54:11;17.30;96.90
1155;DHT22;566;48.414;9.118;2022-10-16T16:56:38;17.40;96.30
1155;DHT22;566;48.414;9.118;2022-10-16T16:59:04;17.40;96.30
1155;DHT22;566;48.414;9.118;2022-10-16T17:01:33;17.50;95.80
1155;DHT22;566;48.414;9.118;2022-10-16T17:03:58;17.60;95.60
1155;DHT22;566;48.414;9.118;2022-10-16T17:06:27;17.80;95.10
1155;DHT22;566;48.414;9.118;2022-10-16T17:08:55;17.90;94.70
1155;DHT22;566;48.414;9.118;2022-10-16T17:11:23;17.90;94.90
1155;DHT22;566;48.414;9.118;2022-10-16T17:13:50;17.80;95.30
1155;DHT22;566;48.414;9.118;2022-10-16T17:16:18;17.70;95.50
1155;DHT22;566;48.414;9.118;2022-10-16T17:18:43;17.70;95.80
1155;DHT22;566;48.414;9.118;2022-10-16T17:21:10;17.60;96.10
1155;DHT22;566;48.414;9.118;2022-10-16T17:23:36;17.50;96.40
1155;DHT22;566;48.414;9.118;2022-10-16T17:26:13;17.40;96.90
1155;DHT22;566;48.414;9.118;2022-10-16T17:28:41;17.40;97.00
1155;DHT22;566;48.414;9.118;2022-10-16T17:31:12;17.40;97.10
1155;DHT22;566;48.414;9.118;2022-10-16T17:33:38;17.40;97.40
1155;DHT22;566;48.414;9.118;2022-10-16T17:36:05;17.30;97.60
1155;DHT22;566;48.414;9.118;2022-10-16T17:38:31;17.50;97.40
1155;DHT22;566;48.414;9.118;2022-10-16T17:41:10;17.40;97.40
1155;DHT22;566;48.414;9.118;2022-10-16T17:43:37;17.40;97.50
1155;DHT22;566;48.414;9.118;2022-10-16T17:46:05;17.40;97.50
1155;DHT22;566;48.414;9.118;2022-10-16T17:48:31;17.40;97.60
1155;DHT22;566;48.414;9.118;2022-10-16T17:51:04;17.40;97.80
1155;DHT22;566;48.414;9.118;2022-10-16T17:53:30;17.30;97.80
1155;DHT22;566;48.414;9.118;2022-10-16T17:56:00;17.20;98.00
1155;DHT22;566;48.414;9.118;2022-10-16T17:58:26;17.10;98.00
1155;DHT22;566;48.414;9.118;2022-10-16T18:00:55;17.00;98.00
1155;DHT22;566;48.414;9.118;2022-10-16T18:03:21;16.90;98.00
1155;DHT22;566;48.414;9.118;2022-10-16T18:05:47;16.90;98.00
1155;DHT22;566;48.414;9.118;2022-10-16T18:08:13;17.00;98.00
1155;DHT22;566;48.414;9.118;2022-10-16T18:10:52;17.00;98.00
1155;DHT22;566;48.414;9.118;2022-10-16T18:13:19;17.00;98.00
1155;DHT22;566;48.414;9.118;2022-10-16T18:15:45;17.10;98.00
1155;DHT22;566;48.414;9.118;2022-10-16T18:18:12;17.00;98.00
1155;DHT22;566;48.414;9.118;2022-10-16T18:20:40;17.10;98.00
1155;DHT22;566;48.414;9.118;2022-10-16T18:23:06;17.10;98.00
1155;DHT22;566;48.414;9.118;2022-10-16T18:25:33;17.20;98.00